Agate Beach, Washington
Current Conditions -  °F | °C
As of 12:53 PM on Tuesday 27 Jan 2015 (Local Time) from KCLM Reporting Station
Overcast Overcast  
Wind Chill: 45°   Ceiling: 800
Heat Index: 49°   Visibility: 10mi
Dew Point: 46°   Wind: 10mph
Humidity: 90%   Direction: 280°W
Pressure: 30.09"   Gusts: NA
Location:  48.1359°N, 123.734°W
Report Text: KCLM 272053Z AUTO 28009KT 10SM BKN008 OVC013 09/08 A3009 RMK AO2 SLP190 T00940078 51013 $
Loading
Personal Weather Stations






























Interactive Weather Map New forecast layout! Learn more

10-Day Weather Forecast

Advertisements
Track Severe Weather on mobile